Time;durP1;ratioP1;P1;durP2;ratioP2;P2;SDS_P1;SDS_P2;PMS_P1;PMS_P2;Temp;Humidity;BMP_temperature;BMP_pressure;BME280_temperature;BME280_humidity;BME280_pressure;Samples;Min_cycle;Max_cycle;Signal;HPM_P1;HPM_P2
2024/01/23 00:00:41;;;;;;;7.90;1.43;;;;;;;;;;5026824;28;20057;-68
2024/01/23 00:03:07;;;;;;;3.90;1.23;;;;;;;;;;5051278;28;20033;-69
2024/01/23 00:05:32;;;;;;;2.80;1.20;;;;;;;;;;5051098;28;20039;-69
2024/01/23 00:07:58;;;;;;;1.57;1.37;;;;;;;;;;5050616;28;20036;-70
2024/01/23 00:10:23;;;;;;;5.07;1.40;;;;;;;;;;5051310;28;20174;-69
2024/01/23 00:12:49;;;;;;;2.17;1.27;;;;;;;;;;5050862;28;20176;-68
2024/01/23 00:15:15;;;;;;;4.87;1.60;;;;;;;;;;5032748;28;20156;-69
2024/01/23 00:17:41;;;;;;;4.80;1.50;;;;;;;;;;5051003;28;20453;-71
2024/01/23 00:20:07;;;;;;;3.93;1.60;;;;;;;;;;5050752;28;20033;-69
2024/01/23 00:22:33;;;;;;;1.70;1.00;;;;;;;;;;5050926;28;20029;-70
2024/01/23 00:24:59;;;;;;;5.60;2.13;;;;;;;;;;5049414;28;20464;-70
2024/01/23 00:27:25;;;;;;;3.87;1.27;;;;;;;;;;5049503;28;20449;-70
2024/01/23 00:29:51;;;;;;;4.73;1.60;;;;;;;;;;5049320;28;20029;-72
2024/01/23 00:32:16;;;;;;;2.33;1.53;;;;;;;;;;5050660;28;20040;-71
2024/01/23 00:34:42;;;;;;;4.67;1.67;;;;;;;;;;5049300;28;20520;-72
2024/01/23 00:37:07;;;;;;;2.80;1.13;;;;;;;;;;5050320;28;20210;-69
2024/01/23 00:39:37;;;;;;;4.60;1.30;;;;;;;;;;5050663;28;20067;-68
2024/01/23 00:42:04;;;;;;;2.77;1.33;;;;;;;;;;5035357;28;20392;-68
2024/01/23 00:44:29;;;;;;;4.60;1.37;;;;;;;;;;5030513;28;20524;-67
2024/01/23 00:46:56;;;;;;;3.60;1.47;;;;;;;;;;5028179;28;20138;-68
2024/01/23 00:49:21;;;;;;;8.70;1.50;;;;;;;;;;5030322;28;20496;-70
2024/01/23 00:51:47;;;;;;;3.13;1.20;;;;;;;;;;5028967;28;20029;-70
2024/01/23 00:54:13;;;;;;;2.40;1.33;;;;;;;;;;5029926;28;20033;-71
2024/01/23 00:56:41;;;;;;;3.17;1.23;;;;;;;;;;5028783;28;20031;-71
2024/01/23 00:59:09;;;;;;;3.90;1.37;;;;;;;;;;5028466;28;20056;-71
2024/01/23 01:01:35;;;;;;;9.10;1.73;;;;;;;;;;5029150;28;20080;-69
2024/01/23 01:04:01;;;;;;;5.40;1.67;;;;;;;;;;5029313;28;20065;-69
2024/01/23 01:06:26;;;;;;;6.87;1.57;;;;;;;;;;5028831;28;20146;-69
2024/01/23 01:08:52;;;;;;;5.97;1.17;;;;;;;;;;5028526;28;20039;-68
2024/01/23 01:11:17;;;;;;;5.17;1.13;;;;;;;;;;5029939;28;20113;-69
2024/01/23 01:13:43;;;;;;;7.00;1.70;;;;;;;;;;5028638;28;20025;-70
2024/01/23 01:16:08;;;;;;;4.10;0.90;;;;;;;;;;5029148;28;20505;-68
2024/01/23 01:18:36;;;;;;;3.43;1.30;;;;;;;;;;5028419;28;20021;-67
2024/01/23 01:21:02;;;;;;;5.23;1.27;;;;;;;;;;5029729;28;20025;-69
2024/01/23 01:23:28;;;;;;;3.60;1.60;;;;;;;;;;5029610;28;20041;-71
2024/01/23 01:25:54;;;;;;;3.20;1.03;;;;;;;;;;5028229;28;20033;-68
2024/01/23 01:28:19;;;;;;;2.70;0.70;;;;;;;;;;5029434;28;20477;-68
2024/01/23 01:30:46;;;;;;;7.00;1.17;;;;;;;;;;5029594;28;20113;-70
2024/01/23 01:33:11;;;;;;;9.93;1.33;;;;;;;;;;5027922;28;20116;-69
2024/01/23 01:35:37;;;;;;;5.93;1.30;;;;;;;;;;5028154;28;20097;-68
2024/01/23 01:38:04;;;;;;;4.60;1.30;;;;;;;;;;5028204;28;20456;-70
2024/01/23 01:40:29;;;;;;;5.50;0.87;;;;;;;;;;5029266;28;20481;-70
2024/01/23 01:42:55;;;;;;;8.17;1.27;;;;;;;;;;5029459;28;20025;-70
2024/01/23 01:45:20;;;;;;;5.57;1.20;;;;;;;;;;5028141;28;20071;-70
2024/01/23 01:47:47;;;;;;;3.83;1.27;;;;;;;;;;5029362;28;20041;-69
2024/01/23 01:50:13;;;;;;;4.73;1.60;;;;;;;;;;5027860;28;20033;-70
2024/01/23 01:52:41;;;;;;;8.13;1.27;;;;;;;;;;5028085;28;20481;-69
2024/01/23 01:55:08;;;;;;;6.37;1.20;;;;;;;;;;5027575;28;20021;-68
2024/01/23 01:57:36;;;;;;;1.87;1.27;;;;;;;;;;5028590;28;20033;-69
2024/01/23 02:00:03;;;;;;;2.90;0.83;;;;;;;;;;5028976;28;20060;-70
2024/01/23 02:02:29;;;;;;;2.07;0.90;;;;;;;;;;5027706;28;20025;-68
2024/01/23 02:04:55;;;;;;;6.53;1.40;;;;;;;;;;5029833;28;20068;-69
2024/01/23 02:07:21;;;;;;;5.27;1.87;;;;;;;;;;5029588;28;20107;-69
2024/01/23 02:09:46;;;;;;;6.57;1.07;;;;;;;;;;5029186;28;20114;-70
2024/01/23 02:12:12;;;;;;;6.93;1.70;;;;;;;;;;5027803;28;20037;-69
2024/01/23 02:14:37;;;;;;;4.90;1.30;;;;;;;;;;5027910;28;20148;-69
2024/01/23 02:17:03;;;;;;;5.17;1.50;;;;;;;;;;5027901;28;20029;-72
2024/01/23 02:19:28;;;;;;;6.40;1.70;;;;;;;;;;5028208;28;20430;-70
2024/01/23 02:21:54;;;;;;;3.90;1.53;;;;;;;;;;5011567;28;20319;-71
2024/01/23 02:24:20;;;;;;;8.77;1.60;;;;;;;;;;5029233;28;20065;-68
2024/01/23 02:26:45;;;;;;;4.40;1.40;;;;;;;;;;5027640;28;20406;-69
2024/01/23 02:29:11;;;;;;;5.10;1.00;;;;;;;;;;5027833;28;20151;-69
2024/01/23 02:31:37;;;;;;;3.30;0.80;;;;;;;;;;5028046;28;20041;-68
2024/01/23 02:34:02;;;;;;;8.97;1.90;;;;;;;;;;5029330;28;20025;-68
2024/01/23 02:36:28;;;;;;;2.10;1.03;;;;;;;;;;5027731;28;20484;-69
2024/01/23 02:38:53;;;;;;;4.10;1.10;;;;;;;;;;5027325;28;20485;-69
2024/01/23 02:41:19;;;;;;;5.50;1.40;;;;;;;;;;5029299;28;20434;-70
2024/01/23 02:43:44;;;;;;;7.87;1.40;;;;;;;;;;5029053;28;20489;-70
2024/01/23 02:46:10;;;;;;;2.13;1.10;;;;;;;;;;5027262;28;20064;-69
2024/01/23 02:48:36;;;;;;;6.77;1.33;;;;;;;;;;5027643;28;20148;-69
2024/01/23 02:51:02;;;;;;;1.83;1.20;;;;;;;;;;5027313;28;20068;-69
2024/01/23 02:53:27;;;;;;;5.13;1.30;;;;;;;;;;5027414;28;20025;-69
2024/01/23 02:55:53;;;;;;;8.17;2.37;;;;;;;;;;5029050;28;20069;-69
2024/01/23 02:58:21;;;;;;;4.73;1.10;;;;;;;;;;5027314;28;20479;-70
2024/01/23 03:00:47;;;;;;;8.93;1.73;;;;;;;;;;5027156;28;20351;-69
2024/01/23 03:03:12;;;;;;;3.00;0.90;;;;;;;;;;5028464;28;20029;-69
2024/01/23 03:05:38;;;;;;;3.13;1.80;;;;;;;;;;5027116;28;20036;-68
2024/01/23 03:08:04;;;;;;;8.53;1.20;;;;;;;;;;5027187;28;20045;-69
2024/01/23 03:10:30;;;;;;;7.57;1.47;;;;;;;;;;5031193;28;20116;-69
2024/01/23 03:12:55;;;;;;;3.77;1.00;;;;;;;;;;5030516;28;20112;-68
2024/01/23 03:15:21;;;;;;;7.53;1.40;;;;;;;;;;5032098;28;20045;-68
2024/01/23 03:17:47;;;;;;;6.63;1.40;;;;;;;;;;5033346;28;20169;-68
2024/01/23 03:20:12;;;;;;;8.50;1.00;;;;;;;;;;5034450;28;20028;-68
2024/01/23 03:22:38;;;;;;;7.73;1.17;;;;;;;;;;5034417;28;20033;-69
2024/01/23 03:25:05;;;;;;;4.93;1.10;;;;;;;;;;5030706;28;20039;-68
2024/01/23 03:27:31;;;;;;;4.63;1.30;;;;;;;;;;5030630;28;20033;-69
2024/01/23 03:29:57;;;;;;;8.20;1.73;;;;;;;;;;5031722;28;20436;-69
2024/01/23 03:32:23;;;;;;;3.70;0.90;;;;;;;;;;5030701;28;20041;-70
2024/01/23 03:34:49;;;;;;;2.30;1.20;;;;;;;;;;5030582;28;20120;-69
2024/01/23 03:37:15;;;;;;;6.73;1.50;;;;;;;;;;5030075;28;20030;-70
2024/01/23 03:39:41;;;;;;;6.63;1.10;;;;;;;;;;5030347;28;20052;-68
2024/01/23 03:42:07;;;;;;;4.53;1.23;;;;;;;;;;5030281;28;20021;-72
2024/01/23 03:44:33;;;;;;;5.13;1.13;;;;;;;;;;5031750;28;20037;-70
2024/01/23 03:46:58;;;;;;;3.30;1.00;;;;;;;;;;5030169;28;20029;-69
2024/01/23 03:49:24;;;;;;;2.27;0.93;;;;;;;;;;5031662;28;20477;-69
2024/01/23 03:51:50;;;;;;;3.27;1.50;;;;;;;;;;5032416;28;20033;-69
2024/01/23 03:54:15;;;;;;;5.00;1.70;;;;;;;;;;5031637;28;20112;-69
2024/01/23 03:56:42;;;;;;;4.13;1.37;;;;;;;;;;5029968;28;20040;-70
2024/01/23 03:59:07;;;;;;;8.33;2.33;;;;;;;;;;5030187;28;20449;-69
2024/01/23 04:01:33;;;;;;;8.00;1.23;;;;;;;;;;5030840;28;20036;-69
2024/01/23 04:03:59;;;;;;;5.93;1.67;;;;;;;;;;5031903;28;20465;-68
2024/01/23 04:06:25;;;;;;;7.63;1.60;;;;;;;;;;5031124;28;20029;-69
2024/01/23 04:08:50;;;;;;;3.97;1.13;;;;;;;;;;5030095;28;20029;-68
2024/01/23 04:11:16;;;;;;;5.60;1.03;;;;;;;;;;5029725;28;20060;-69
2024/01/23 04:13:41;;;;;;;4.23;1.07;;;;;;;;;;5031275;28;20029;-69
2024/01/23 04:16:07;;;;;;;6.23;1.43;;;;;;;;;;5031251;28;20482;-69
2024/01/23 04:18:33;;;;;;;3.13;0.93;;;;;;;;;;5029526;28;20034;-68
2024/01/23 04:20:59;;;;;;;7.03;1.00;;;;;;;;;;5030426;28;20107;-68
2024/01/23 04:23:25;;;;;;;7.50;1.67;;;;;;;;;;5029447;28;20056;-69
2024/01/23 04:25:50;;;;;;;8.00;1.33;;;;;;;;;;5029396;28;20123;-69
2024/01/23 04:28:16;;;;;;;4.73;0.87;;;;;;;;;;5031468;28;20104;-69
2024/01/23 04:30:42;;;;;;;3.43;1.10;;;;;;;;;;5030919;28;20122;-68
2024/01/23 04:33:08;;;;;;;7.60;1.40;;;;;;;;;;5030810;28;20029;-70
2024/01/23 04:35:34;;;;;;;7.00;1.40;;;;;;;;;;5029345;28;20530;-69
2024/01/23 04:38:01;;;;;;;4.13;1.27;;;;;;;;;;5030873;28;20052;-68
2024/01/23 04:40:27;;;;;;;3.37;1.10;;;;;;;;;;5030538;28;20030;-69
2024/01/23 04:42:54;;;;;;;5.60;0.97;;;;;;;;;;5029145;28;20029;-68
2024/01/23 04:45:20;;;;;;;6.77;1.93;;;;;;;;;;5030280;28;20489;-69
2024/01/23 04:47:46;;;;;;;6.70;1.50;;;;;;;;;;5029218;28;20082;-69
2024/01/23 04:50:11;;;;;;;3.60;0.93;;;;;;;;;;5030277;28;20462;-71
2024/01/23 04:52:37;;;;;;;2.83;0.90;;;;;;;;;;5029191;28;20144;-71
2024/01/23 04:55:03;;;;;;;10.30;1.13;;;;;;;;;;5029487;28;20112;-70
2024/01/23 04:57:31;;;;;;;4.93;1.07;;;;;;;;;;5028996;28;20172;-72
2024/01/23 05:00:00;;;;;;;3.70;1.20;;;;;;;;;;5030190;28;20046;-68
2024/01/23 05:02:26;;;;;;;5.30;1.20;;;;;;;;;;5030162;28;20366;-70
2024/01/23 05:04:52;;;;;;;6.40;1.23;;;;;;;;;;5030382;28;20022;-68
2024/01/23 05:07:18;;;;;;;3.53;0.90;;;;;;;;;;5028455;28;20025;-69
2024/01/23 05:09:44;;;;;;;7.00;1.37;;;;;;;;;;5030292;28;20048;-71
2024/01/23 05:12:10;;;;;;;4.93;1.00;;;;;;;;;;5028947;28;20033;-71
2024/01/23 05:14:36;;;;;;;3.80;1.37;;;;;;;;;;5028474;28;20036;-71
2024/01/23 05:17:01;;;;;;;1.10;0.80;;;;;;;;;;5028698;28;20029;-68
2024/01/23 05:19:28;;;;;;;3.80;0.90;;;;;;;;;;5028527;28;20345;-70
2024/01/23 05:21:53;;;;;;;0.80;0.80;;;;;;;;;;5028308;28;20083;-69
2024/01/23 05:24:19;;;;;;;1.30;0.70;;;;;;;;;;5029660;28;20025;-69
2024/01/23 05:26:44;;;;;;;4.87;1.40;;;;;;;;;;5030034;28;20060;-69
2024/01/23 05:29:10;;;;;;;2.40;0.67;;;;;;;;;;5029921;28;20458;-68
2024/01/23 05:31:36;;;;;;;2.83;1.00;;;;;;;;;;5027889;28;20032;-72
2024/01/23 05:34:01;;;;;;;6.30;1.43;;;;;;;;;;5011760;28;20036;-69
2024/01/23 05:36:27;;;;;;;2.57;0.70;;;;;;;;;;5029516;28;20469;-71
2024/01/23 05:38:52;;;;;;;3.97;1.47;;;;;;;;;;5028438;28;20026;-70
2024/01/23 05:41:18;;;;;;;4.03;1.00;;;;;;;;;;5028246;28;20029;-71
2024/01/23 05:43:44;;;;;;;5.20;0.97;;;;;;;;;;5029539;28;20087;-70
2024/01/23 05:46:09;;;;;;;0.90;0.70;;;;;;;;;;5028060;28;20372;-72
2024/01/23 05:48:35;;;;;;;3.73;1.07;;;;;;;;;;5028095;28;20053;-71
2024/01/23 05:51:00;;;;;;;1.90;1.03;;;;;;;;;;5028028;28;20539;-70
2024/01/23 05:53:26;;;;;;;1.60;0.80;;;;;;;;;;5029860;28;20094;-69
2024/01/23 05:55:52;;;;;;;3.93;1.20;;;;;;;;;;5028214;28;20112;-70
2024/01/23 05:58:17;;;;;;;3.60;1.10;;;;;;;;;;5027979;28;20033;-69
2024/01/23 06:00:43;;;;;;;3.70;1.50;;;;;;;;;;5028188;28;20054;-68
2024/01/23 06:03:08;;;;;;;3.73;1.07;;;;;;;;;;5029689;28;20025;-69
2024/01/23 06:05:34;;;;;;;2.90;1.00;;;;;;;;;;5027725;28;20030;-69
2024/01/23 06:08:00;;;;;;;2.60;0.77;;;;;;;;;;5028314;28;20485;-70
2024/01/23 06:10:26;;;;;;;5.63;1.07;;;;;;;;;;5030589;28;20029;-68
2024/01/23 06:12:52;;;;;;;4.80;0.90;;;;;;;;;;5029823;28;20056;-69
2024/01/23 06:15:18;;;;;;;3.40;0.77;;;;;;;;;;5028142;28;20033;-68
2024/01/23 06:17:43;;;;;;;2.90;1.17;;;;;;;;;;5012287;28;20115;-73
2024/01/23 06:20:12;;;;;;;1.70;0.80;;;;;;;;;;5012060;28;20122;-68
2024/01/23 06:22:38;;;;;;;2.07;0.70;;;;;;;;;;5013864;28;20040;-69
2024/01/23 06:25:14;;;;;;;2.47;1.23;;;;;;;;;;5018993;28;20083;-69
2024/01/23 06:27:40;;;;;;;2.90;0.80;;;;;;;;;;5021708;28;20026;-69
2024/01/23 06:30:11;;;;;;;4.87;0.83;;;;;;;;;;5024398;28;20060;-69
2024/01/23 06:32:38;;;;;;;3.30;0.70;;;;;;;;;;5029026;28;20032;-69
2024/01/23 06:35:05;;;;;;;5.37;1.10;;;;;;;;;;5024923;28;20108;-69
2024/01/23 06:37:30;;;;;;;3.07;0.90;;;;;;;;;;5026632;28;20604;-69
2024/01/23 06:39:56;;;;;;;1.33;0.70;;;;;;;;;;5024083;28;20104;-68
2024/01/23 06:42:21;;;;;;;1.20;0.57;;;;;;;;;;5012065;28;20037;-69
2024/01/23 06:44:47;;;;;;;1.83;0.70;;;;;;;;;;5030247;28;20111;-69
2024/01/23 06:47:12;;;;;;;6.03;1.00;;;;;;;;;;5029950;28;20037;-70
2024/01/23 06:49:38;;;;;;;2.83;0.60;;;;;;;;;;5023070;28;20056;-69
2024/01/23 06:52:04;;;;;;;5.87;0.70;;;;;;;;;;5011192;28;20432;-70
2024/01/23 06:54:30;;;;;;;2.33;1.00;;;;;;;;;;5028205;28;20425;-69
2024/01/23 06:56:56;;;;;;;3.43;0.90;;;;;;;;;;5026912;28;20021;-68
2024/01/23 06:59:21;;;;;;;4.50;1.10;;;;;;;;;;5030597;28;20053;-68
2024/01/23 07:02:04;;;;;;;2.43;0.90;;;;;;;;;;5029262;28;20033;-68
2024/01/23 07:04:30;;;;;;;4.07;1.03;;;;;;;;;;5025803;28;20532;-69
2024/01/23 07:06:56;;;;;;;3.13;1.53;;;;;;;;;;5030126;28;20028;-71
2024/01/23 07:09:21;;;;;;;5.17;0.97;;;;;;;;;;5026830;28;20485;-70
2024/01/23 07:11:49;;;;;;;3.80;1.23;;;;;;;;;;5025615;28;20450;-70
2024/01/23 07:14:14;;;;;;;2.97;0.87;;;;;;;;;;5029558;28;20025;-72
2024/01/23 07:16:40;;;;;;;4.10;0.93;;;;;;;;;;5021666;28;20029;-70
2024/01/23 07:19:06;;;;;;;4.17;1.30;;;;;;;;;;5019061;28;20029;-73
2024/01/23 07:21:31;;;;;;;5.20;1.07;;;;;;;;;;5029969;28;20717;-73
2024/01/23 07:23:57;;;;;;;3.07;0.63;;;;;;;;;;5036802;28;20022;-72
2024/01/23 07:26:22;;;;;;;1.67;0.80;;;;;;;;;;5020851;28;20493;-70
2024/01/23 07:28:48;;;;;;;3.57;1.00;;;;;;;;;;5027259;28;20026;-69
2024/01/23 07:31:14;;;;;;;3.23;1.27;;;;;;;;;;5028758;28;20574;-71
2024/01/23 07:33:39;;;;;;;3.67;0.97;;;;;;;;;;5030008;28;20024;-71
2024/01/23 07:36:05;;;;;;;2.40;0.90;;;;;;;;;;5017816;28;20496;-68
2024/01/23 07:38:33;;;;;;;4.57;1.40;;;;;;;;;;5024447;28;20337;-70
2024/01/23 07:40:59;;;;;;;3.83;1.00;;;;;;;;;;5022667;28;20044;-70
2024/01/23 07:43:25;;;;;;;1.67;1.17;;;;;;;;;;5012154;28;20504;-69
2024/01/23 07:45:53;;;;;;;2.43;0.97;;;;;;;;;;5016152;28;20128;-70
2024/01/23 07:48:21;;;;;;;5.47;1.20;;;;;;;;;;5003165;28;20030;-72
2024/01/23 07:50:47;;;;;;;4.80;1.33;;;;;;;;;;5004882;28;20065;-70
2024/01/23 07:53:16;;;;;;;6.47;1.27;;;;;;;;;;5019399;28;20025;-74
2024/01/23 07:55:52;;;;;;;4.53;1.17;;;;;;;;;;5011439;28;20037;-70
2024/01/23 07:58:22;;;;;;;3.47;1.23;;;;;;;;;;5016033;28;20033;-74
2024/01/23 08:00:53;;;;;;;3.33;0.80;;;;;;;;;;5019906;28;20049;-70
2024/01/23 08:03:23;;;;;;;6.20;1.03;;;;;;;;;;5004981;28;20082;-69
2024/01/23 08:05:57;;;;;;;4.43;1.10;;;;;;;;;;5014974;28;20117;-70
2024/01/23 08:08:23;;;;;;;3.57;1.00;;;;;;;;;;5013851;28;20148;-70
2024/01/23 08:10:51;;;;;;;2.73;1.50;;;;;;;;;;5015911;28;20116;-72
2024/01/23 08:13:20;;;;;;;4.23;1.17;;;;;;;;;;5010801;28;20095;-70
2024/01/23 08:15:47;;;;;;;4.10;1.03;;;;;;;;;;5021435;28;20033;-70
2024/01/23 08:18:14;;;;;;;4.20;1.13;;;;;;;;;;5016787;28;20149;-71
2024/01/23 08:20:41;;;;;;;7.50;2.70;;;;;;;;;;5010087;28;20033;-72
2024/01/23 08:23:08;;;;;;;3.93;2.00;;;;;;;;;;5022619;28;20121;-69
2024/01/23 08:25:34;;;;;;;2.37;1.13;;;;;;;;;;5008651;28;20037;-73
2024/01/23 08:28:00;;;;;;;7.23;1.93;;;;;;;;;;5000522;28;20025;-69
2024/01/23 08:30:28;;;;;;;6.37;1.63;;;;;;;;;;5000956;28;20461;-71
2024/01/23 08:32:54;;;;;;;11.57;5.17;;;;;;;;;;5005658;28;20132;-72
2024/01/23 08:35:20;;;;;;;9.53;2.07;;;;;;;;;;5018252;28;20442;-72
2024/01/23 08:37:46;;;;;;;6.77;2.20;;;;;;;;;;5021821;28;20029;-70
2024/01/23 08:40:21;;;;;;;3.53;1.30;;;;;;;;;;5002287;28;20061;-70
2024/01/23 08:42:47;;;;;;;6.07;1.40;;;;;;;;;;5018111;28;20064;-73
2024/01/23 08:45:13;;;;;;;2.17;1.40;;;;;;;;;;5014374;28;20081;-70
2024/01/23 08:47:39;;;;;;;5.37;1.30;;;;;;;;;;5006831;28;20457;-70
2024/01/23 08:50:07;;;;;;;3.53;1.10;;;;;;;;;;5015037;28;20039;-71
2024/01/23 08:52:33;;;;;;;3.43;1.20;;;;;;;;;;5014639;28;20132;-71
2024/01/23 08:54:59;;;;;;;10.80;3.53;;;;;;;;;;5019815;28;20557;-70
2024/01/23 08:57:24;;;;;;;2.87;1.03;;;;;;;;;;5013185;28;20033;-72
2024/01/23 08:59:54;;;;;;;3.83;1.20;;;;;;;;;;5017056;28;20295;-69
2024/01/23 09:02:20;;;;;;;4.97;1.10;;;;;;;;;;5016118;28;20059;-71
2024/01/23 09:04:46;;;;;;;2.73;1.23;;;;;;;;;;5020469;28;20036;-70
2024/01/23 09:07:13;;;;;;;2.10;0.70;;;;;;;;;;5018806;28;20122;-70
2024/01/23 09:09:39;;;;;;;2.00;1.13;;;;;;;;;;5008666;28;20037;-74
2024/01/23 09:12:05;;;;;;;2.53;0.80;;;;;;;;;;5025086;28;20401;-70
2024/01/23 09:14:31;;;;;;;3.17;1.00;;;;;;;;;;5016529;28;20039;-73
2024/01/23 09:16:56;;;;;;;5.10;1.00;;;;;;;;;;5023613;28;20029;-73
2024/01/23 09:19:22;;;;;;;6.80;1.70;;;;;;;;;;5019786;28;20056;-72
2024/01/23 09:21:48;;;;;;;5.63;2.53;;;;;;;;;;5019012;28;20029;-72
2024/01/23 09:24:14;;;;;;;8.80;1.10;;;;;;;;;;5014092;28;20044;-72
2024/01/23 09:27:03;;;;;;;5.23;1.37;;;;;;;;;;5004828;28;20068;-68
2024/01/23 09:29:33;;;;;;;3.50;1.30;;;;;;;;;;5020133;28;20063;-72
2024/01/23 09:31:59;;;;;;;7.00;1.40;;;;;;;;;;5020664;28;20041;-70
2024/01/23 09:34:26;;;;;;;6.37;1.03;;;;;;;;;;5032198;28;20041;-68
2024/01/23 09:36:53;;;;;;;4.53;1.03;;;;;;;;;;5017993;28;20029;-70
2024/01/23 09:39:20;;;;;;;2.57;1.00;;;;;;;;;;5017828;28;20034;-73
2024/01/23 09:41:54;;;;;;;4.03;1.10;;;;;;;;;;4995499;28;20056;-72
2024/01/23 09:44:20;;;;;;;6.33;1.23;;;;;;;;;;5011418;28;20185;-70
2024/01/23 09:46:50;;;;;;;6.20;1.40;;;;;;;;;;5001717;28;20029;-73
2024/01/23 09:49:18;;;;;;;5.40;1.27;;;;;;;;;;5017067;28;20025;-70
2024/01/23 09:51:49;;;;;;;4.85;1.20;;;;;;;;;;5021147;28;20066;-69
2024/01/23 09:54:18;;;;;;;2.58;0.82;;;;;;;;;;5016004;28;20041;-69
2024/01/23 09:56:44;;;;;;;6.00;1.27;;;;;;;;;;5019356;28;20136;-73
2024/01/23 09:59:10;;;;;;;3.97;1.10;;;;;;;;;;5013372;28;20088;-71
2024/01/23 10:01:37;;;;;;;2.17;0.77;;;;;;;;;;5019211;28;20038;-71
2024/01/23 10:04:04;;;;;;;3.85;1.40;;;;;;;;;;5025029;28;20013;-71
2024/01/23 10:06:32;;;;;;;2.33;0.98;;;;;;;;;;5024079;28;20569;-72
2024/01/23 10:08:58;;;;;;;3.42;1.10;;;;;;;;;;5016115;28;20145;-75
2024/01/23 10:11:28;;;;;;;4.00;1.80;;;;;;;;;;5012236;28;20568;-70
2024/01/23 10:13:58;;;;;;;7.13;0.95;;;;;;;;;;5021286;28;20093;-70
2024/01/23 10:16:26;;;;;;;7.20;1.15;;;;;;;;;;5018280;28;20043;-74
2024/01/23 10:18:54;;;;;;;5.40;1.25;;;;;;;;;;5019894;28;20160;-69
2024/01/23 10:21:21;;;;;;;8.27;1.50;;;;;;;;;;5019482;28;20038;-71
2024/01/23 10:23:52;;;;;;;4.45;0.98;;;;;;;;;;5016680;28;20036;-73
2024/01/23 10:26:19;;;;;;;5.78;1.33;;;;;;;;;;5005294;28;20112;-70
2024/01/23 10:28:49;;;;;;;9.23;1.40;;;;;;;;;;5015350;28;20043;-69
2024/01/23 10:31:16;;;;;;;6.97;1.30;;;;;;;;;;5018462;28;20512;-71
2024/01/23 10:33:42;;;;;;;1.75;0.85;;;;;;;;;;5021778;28;20092;-72
2024/01/23 10:36:08;;;;;;;4.13;1.40;;;;;;;;;;5014922;28;20021;-72
2024/01/23 10:38:35;;;;;;;4.50;0.95;;;;;;;;;;5014610;28;20021;-72
2024/01/23 10:41:04;;;;;;;5.53;1.10;;;;;;;;;;5011317;28;20071;-71
2024/01/23 10:43:36;;;;;;;5.03;1.17;;;;;;;;;;5019953;28;20049;-72
2024/01/23 10:46:03;;;;;;;2.97;1.17;;;;;;;;;;5018807;28;20073;-71
2024/01/23 10:48:32;;;;;;;5.60;2.38;;;;;;;;;;5015435;28;20025;-72
2024/01/23 10:51:10;;;;;;;3.30;0.93;;;;;;;;;;4999070;28;20102;-71
2024/01/23 10:54:01;;;;;;;4.03;1.20;;;;;;;;;;5018289;28;20442;-73
2024/01/23 10:56:46;;;;;;;6.93;1.25;;;;;;;;;;5015795;28;20516;-70
2024/01/23 11:09:06;;;;;;;4.77;1.30;;;;;;;;;;5017349;28;20538;-70
2024/01/23 11:11:57;;;;;;;3.78;1.45;;;;;;;;;;5016546;28;20037;-71
2024/01/23 11:14:29;;;;;;;10.80;1.55;;;;;;;;;;5017555;28;20053;-67
2024/01/23 11:17:09;;;;;;;8.40;1.90;;;;;;;;;;5020452;28;20117;-71
2024/01/23 11:19:39;;;;;;;4.68;1.20;;;;;;;;;;5022743;28;20036;-70
2024/01/23 11:22:05;;;;;;;5.90;1.05;;;;;;;;;;5017209;28;20040;-72
2024/01/23 11:24:44;;;;;;;6.75;1.42;;;;;;;;;;5018383;28;20034;-71
2024/01/23 11:27:28;;;;;;;5.47;1.55;;;;;;;;;;5030030;28;20369;-73
2024/01/23 11:29:56;;;;;;;5.60;1.10;;;;;;;;;;5020184;28;20037;-70
2024/01/23 11:32:31;;;;;;;4.65;1.05;;;;;;;;;;5025000;28;20145;-71
2024/01/23 11:35:11;;;;;;;6.10;1.40;;;;;;;;;;5020127;28;20025;-70
2024/01/23 11:37:50;;;;;;;6.72;1.75;;;;;;;;;;5017103;28;20044;-68
2024/01/23 11:40:31;;;;;;;7.82;1.35;;;;;;;;;;5020895;28;20041;-70
2024/01/23 11:43:04;;;;;;;3.13;1.77;;;;;;;;;;5016286;28;20471;-69
2024/01/23 11:45:32;;;;;;;1.92;1.20;;;;;;;;;;5021119;28;20040;-70
2024/01/23 11:48:00;;;;;;;5.93;1.60;;;;;;;;;;5000003;28;20018;-71
2024/01/23 11:50:29;;;;;;;5.22;1.50;;;;;;;;;;5019567;28;20060;-69
2024/01/23 11:52:58;;;;;;;7.07;1.50;;;;;;;;;;5023208;28;20026;-70
2024/01/23 11:55:25;;;;;;;5.13;1.35;;;;;;;;;;5017879;28;20101;-69
2024/01/23 11:58:00;;;;;;;4.22;1.10;;;;;;;;;;5022674;28;20049;-72
2024/01/23 12:00:27;;;;;;;14.38;2.20;;;;;;;;;;5020034;28;20401;-73
2024/01/23 12:02:53;;;;;;;5.63;1.98;;;;;;;;;;5017743;28;20033;-72
2024/01/23 12:05:19;;;;;;;6.40;1.50;;;;;;;;;;5019687;28;20025;-71
2024/01/23 12:07:45;;;;;;;4.82;1.58;;;;;;;;;;5022501;28;20362;-72
2024/01/23 12:10:16;;;;;;;3.65;1.50;;;;;;;;;;5013675;28;20061;-69
2024/01/23 12:12:42;;;;;;;4.38;1.38;;;;;;;;;;5012610;28;20026;-70
2024/01/23 12:15:08;;;;;;;6.82;1.77;;;;;;;;;;5020498;28;20053;-68
2024/01/23 12:17:35;;;;;;;5.38;1.70;;;;;;;;;;5014879;28;20128;-70
2024/01/23 12:20:09;;;;;;;8.23;1.65;;;;;;;;;;5019560;28;20033;-70
2024/01/23 12:22:39;;;;;;;6.60;1.27;;;;;;;;;;5019068;28;20024;-69
2024/01/23 12:25:06;;;;;;;2.67;1.77;;;;;;;;;;5018113;28;21352;-70
2024/01/23 12:27:35;;;;;;;10.30;1.80;;;;;;;;;;5021629;28;20373;-71
2024/01/23 12:30:05;;;;;;;5.23;1.73;;;;;;;;;;5018320;28;20033;-70
2024/01/23 12:32:35;;;;;;;7.40;1.37;;;;;;;;;;5016071;28;20029;-71
2024/01/23 12:35:02;;;;;;;8.83;1.80;;;;;;;;;;5002182;28;20057;-75
2024/01/23 12:37:29;;;;;;;10.07;1.95;;;;;;;;;;5019189;28;20037;-70
2024/01/23 12:39:56;;;;;;;5.73;1.97;;;;;;;;;;5017463;28;20132;-68
2024/01/23 12:42:22;;;;;;;5.95;2.00;;;;;;;;;;5021768;28;20039;-69
2024/01/23 12:44:48;;;;;;;3.83;1.40;;;;;;;;;;5012053;28;20041;-68
2024/01/23 12:47:15;;;;;;;3.83;1.85;;;;;;;;;;5020437;28;20044;-69
2024/01/23 12:49:41;;;;;;;8.38;1.83;;;;;;;;;;5013593;28;20034;-70
2024/01/23 12:52:18;;;;;;;5.80;1.77;;;;;;;;;;5016032;28;20385;-69
2024/01/23 12:54:46;;;;;;;5.55;1.58;;;;;;;;;;5023455;28;20033;-69
2024/01/23 12:57:13;;;;;;;4.40;2.43;;;;;;;;;;5016983;28;20119;-72
2024/01/23 12:59:40;;;;;;;6.43;2.00;;;;;;;;;;5016268;28;20034;-71
2024/01/23 13:02:08;;;;;;;6.28;1.67;;;;;;;;;;5017535;28;20061;-68
2024/01/23 13:04:35;;;;;;;10.57;1.87;;;;;;;;;;5021335;28;20045;-69
2024/01/23 13:07:03;;;;;;;10.05;1.63;;;;;;;;;;5002936;28;20041;-69
2024/01/23 13:09:29;;;;;;;5.47;2.20;;;;;;;;;;5004284;28;20243;-70
2024/01/23 13:11:55;;;;;;;5.38;1.80;;;;;;;;;;5020328;28;20116;-71
2024/01/23 13:14:24;;;;;;;6.25;2.53;;;;;;;;;;5011122;28;20144;-69
2024/01/23 13:16:51;;;;;;;6.53;2.33;;;;;;;;;;5013762;28;20029;-69
2024/01/23 13:19:19;;;;;;;7.37;2.47;;;;;;;;;;4998616;28;20037;-70
2024/01/23 13:21:45;;;;;;;8.68;2.38;;;;;;;;;;5020674;28;20028;-69
2024/01/23 13:24:13;;;;;;;7.57;1.63;;;;;;;;;;5013160;28;20041;-70
2024/01/23 13:26:39;;;;;;;11.53;2.03;;;;;;;;;;5014281;28;20029;-70
2024/01/23 13:29:05;;;;;;;6.10;1.80;;;;;;;;;;5014022;28;20117;-71
2024/01/23 13:31:34;;;;;;;7.03;1.75;;;;;;;;;;5018010;28;20424;-68
2024/01/23 13:34:01;;;;;;;6.07;1.80;;;;;;;;;;5018027;28;20480;-72
2024/01/23 13:36:28;;;;;;;7.85;2.25;;;;;;;;;;5011009;28;20485;-72
2024/01/23 13:38:53;;;;;;;12.60;3.20;;;;;;;;;;4977593;28;20077;-71
2024/01/23 13:41:19;;;;;;;12.45;2.35;;;;;;;;;;5019093;28;20056;-69
2024/01/23 13:43:45;;;;;;;13.75;2.25;;;;;;;;;;5015438;28;20402;-69
2024/01/23 13:46:21;;;;;;;8.43;2.33;;;;;;;;;;5004944;28;20646;-72
2024/01/23 13:48:46;;;;;;;4.85;1.85;;;;;;;;;;5017939;28;20504;-72
2024/01/23 13:51:12;;;;;;;7.60;1.52;;;;;;;;;;5013810;28;20065;-73
2024/01/23 13:53:38;;;;;;;11.00;1.88;;;;;;;;;;5010679;28;20071;-71
2024/01/23 13:56:04;;;;;;;7.25;1.30;;;;;;;;;;5017466;28;20040;-69
2024/01/23 13:58:29;;;;;;;4.97;1.63;;;;;;;;;;5008099;28;20541;-69
2024/01/23 14:00:55;;;;;;;7.93;1.45;;;;;;;;;;5016197;28;20033;-69
2024/01/23 14:03:20;;;;;;;3.95;2.65;;;;;;;;;;5003806;28;20088;-70
2024/01/23 14:05:47;;;;;;;7.65;2.47;;;;;;;;;;5015688;28;20850;-73
2024/01/23 14:08:13;;;;;;;3.40;1.40;;;;;;;;;;5018335;28;20037;-70
2024/01/23 14:10:41;;;;;;;11.93;1.60;;;;;;;;;;5024178;28;20572;-69
2024/01/23 14:13:07;;;;;;;7.10;1.55;;;;;;;;;;5022808;28;20478;-70
2024/01/23 14:15:32;;;;;;;6.27;1.40;;;;;;;;;;5008164;28;20171;-69
2024/01/23 14:17:58;;;;;;;4.55;1.75;;;;;;;;;;5002989;28;20484;-70
2024/01/23 14:20:24;;;;;;;8.70;2.00;;;;;;;;;;4998891;28;20128;-68
2024/01/23 14:22:52;;;;;;;14.13;2.47;;;;;;;;;;5005485;28;20239;-69
2024/01/23 14:25:20;;;;;;;7.82;2.75;;;;;;;;;;5010137;28;20071;-71
2024/01/23 14:27:48;;;;;;;10.97;1.33;;;;;;;;;;5016552;28;20029;-71
2024/01/23 14:30:16;;;;;;;3.70;1.60;;;;;;;;;;5016231;28;20073;-71
2024/01/23 14:32:43;;;;;;;7.82;1.67;;;;;;;;;;5023098;28;20072;-69
2024/01/23 14:35:09;;;;;;;7.85;2.30;;;;;;;;;;5017367;28;20044;-70
2024/01/23 14:37:35;;;;;;;14.17;2.47;;;;;;;;;;5023772;28;20041;-70
2024/01/23 14:40:01;;;;;;;11.73;2.80;;;;;;;;;;5023959;28;20481;-71
2024/01/23 14:42:27;;;;;;;7.90;2.17;;;;;;;;;;5003148;28;20038;-71
2024/01/23 14:44:53;;;;;;;11.60;2.28;;;;;;;;;;5009149;28;20026;-68
2024/01/23 14:47:22;;;;;;;11.45;2.33;;;;;;;;;;5022600;28;20036;-70
2024/01/23 14:49:48;;;;;;;13.40;2.50;;;;;;;;;;5019886;28;20091;-69
2024/01/23 14:52:13;;;;;;;5.97;2.00;;;;;;;;;;5020845;28;20037;-68